Time;durP1;ratioP1;P1;durP2;ratioP2;P2;SDS_P1;SDS_P2;PMS_P1;PMS_P2;Temp;Humidity;BMP_temperature;BMP_pressure;BME280_temperature;BME280_humidity;BME280_pressure;Samples;Min_cycle;Max_cycle;Signal;HPM_P1;HPM_P2
2022/05/29 00:00:22;;;;;;;0.40;0.40;;;12.00;99.90;;;;;;5096356;28;20443;-84
2022/05/29 00:02:49;;;;;;;0.37;0.37;;;12.00;99.90;;;;;;5095110;28;20475;-84
2022/05/29 00:05:16;;;;;;;0.40;0.40;;;12.00;99.90;;;;;;5096165;28;20853;-84
2022/05/29 00:07:49;;;;;;;0.47;0.47;;;11.90;99.90;;;;;;5096060;28;20455;-84
2022/05/29 00:10:17;;;;;;;1.27;1.17;;;11.90;99.90;;;;;;5096291;28;20493;-84
2022/05/29 00:12:45;;;;;;;0.30;0.30;;;11.90;99.90;;;;;;5095983;28;21002;-84
2022/05/29 00:15:13;;;;;;;0.50;0.50;;;11.90;99.90;;;;;;5095949;28;20480;-84
2022/05/29 00:17:39;;;;;;;0.50;0.40;;;11.90;99.90;;;;;;5096110;28;20443;-84
2022/05/29 00:20:07;;;;;;;0.40;0.40;;;11.80;99.90;;;;;;5095901;28;20474;-84
2022/05/29 00:22:35;;;;;;;0.67;0.50;;;11.70;99.90;;;;;;5095817;28;20471;-84
2022/05/29 00:25:05;;;;;;;0.57;0.53;;;11.70;99.90;;;;;;5095892;28;20535;-84
2022/05/29 00:27:32;;;;;;;0.60;0.40;;;11.70;99.90;;;;;;5095864;28;20428;-84
2022/05/29 00:30:00;;;;;;;0.40;0.40;;;11.70;99.90;;;;;;5095821;28;20802;-84
2022/05/29 00:32:27;;;;;;;0.33;0.30;;;11.60;99.90;;;;;;5095766;28;20830;-84
2022/05/29 00:34:54;;;;;;;0.60;0.40;;;11.50;99.90;;;;;;5095386;28;21056;-84
2022/05/29 00:37:21;;;;;;;0.50;0.43;;;11.50;99.90;;;;;;5095727;28;20451;-84
2022/05/29 00:39:49;;;;;;;0.60;0.60;;;11.40;99.90;;;;;;5095554;28;20950;-84
2022/05/29 00:42:17;;;;;;;0.50;0.47;;;11.40;99.90;;;;;;5095018;28;20484;-84
2022/05/29 00:44:44;;;;;;;0.70;0.60;;;11.40;99.90;;;;;;5095440;28;20451;-84
2022/05/29 00:47:14;;;;;;;3.50;0.50;;;11.40;99.90;;;;;;5095091;28;20447;-84
2022/05/29 00:49:43;;;;;;;0.53;0.50;;;11.30;99.90;;;;;;5095345;28;20444;-84
2022/05/29 00:52:14;;;;;;;0.33;0.30;;;11.30;99.90;;;;;;5095518;28;20474;-84
2022/05/29 00:54:43;;;;;;;0.50;0.40;;;11.30;99.90;;;;;;5095209;28;20443;-84
2022/05/29 00:57:12;;;;;;;0.40;0.30;;;11.20;99.90;;;;;;5095224;28;20452;-84
2022/05/29 00:59:39;;;;;;;0.40;0.40;;;11.20;99.90;;;;;;5095202;28;20473;-84
2022/05/29 01:02:06;;;;;;;0.40;0.40;;;11.20;99.90;;;;;;5094829;28;20471;-84
2022/05/29 01:04:37;;;;;;;0.50;0.50;;;11.20;99.90;;;;;;5095052;28;20443;-84
2022/05/29 01:07:06;;;;;;;0.70;0.50;;;11.20;99.90;;;;;;5095147;28;20432;-84
2022/05/29 01:09:34;;;;;;;0.40;0.33;;;11.20;99.90;;;;;;5095069;28;20794;-84
2022/05/29 01:12:06;;;;;;;3.37;0.97;;;11.20;99.90;;;;;;5094965;28;20459;-84
2022/05/29 01:14:51;;;;;;;0.60;0.40;;;11.20;99.90;;;;;;5094441;28;20807;-84
2022/05/29 01:17:28;;;;;;;0.50;0.50;;;11.10;99.90;;;;;;5094874;28;20511;-84
2022/05/29 01:20:18;;;;;;;0.40;0.37;;;11.10;99.90;;;;;;5094903;28;20431;-84
2022/05/29 01:23:22;;;;;;;1.30;1.10;;;11.10;99.90;;;;;;5094442;28;20459;-84
2022/05/29 01:26:02;;;;;;;0.50;0.37;;;11.10;99.90;;;;;;5094754;28;20435;-84
2022/05/29 01:28:45;;;;;;;0.43;0.40;;;11.20;99.90;;;;;;5094785;28;20494;-84
2022/05/29 01:31:20;;;;;;;0.50;0.50;;;11.20;99.90;;;;;;5094654;28;20435;-84
2022/05/29 01:33:54;;;;;;;0.50;0.40;;;11.20;99.90;;;;;;5094302;28;20462;-84
2022/05/29 01:36:30;;;;;;;1.17;0.60;;;11.20;99.90;;;;;;5094392;28;20470;-84
2022/05/29 01:39:01;;;;;;;1.10;0.40;;;11.20;99.90;;;;;;5094471;28;20812;-84
2022/05/29 01:41:34;;;;;;;0.40;0.40;;;11.30;99.90;;;;;;5093793;28;20484;-84
2022/05/29 01:44:10;;;;;;;0.30;0.30;;;11.30;99.90;;;;;;5094222;28;20416;-84
2022/05/29 01:46:37;;;;;;;0.50;0.50;;;11.30;99.90;;;;;;5094385;28;20431;-84
2022/05/29 01:49:13;;;;;;;0.83;0.83;;;11.30;99.90;;;;;;5094261;28;20451;-84
2022/05/29 01:51:46;;;;;;;0.40;0.40;;;11.30;99.90;;;;;;5094350;28;20412;-84
2022/05/29 01:54:17;;;;;;;1.07;0.50;;;11.30;99.90;;;;;;5094050;28;20436;-84
2022/05/29 01:56:48;;;;;;;0.63;0.50;;;11.30;99.90;;;;;;5094137;28;20459;-85
2022/05/29 01:59:19;;;;;;;2.40;0.43;;;11.30;99.90;;;;;;5094240;28;20436;-85
2022/05/29 02:01:51;;;;;;;3.90;0.60;;;11.20;99.90;;;;;;5094138;28;20468;-84
2022/05/29 02:04:22;;;;;;;0.50;0.50;;;11.20;99.90;;;;;;5094061;28;20432;-84
2022/05/29 02:09:40;;;;;;;0.83;0.40;;;11.20;99.90;;;;;;5093781;28;20482;-84
2022/05/29 02:12:11;;;;;;;0.70;0.53;;;11.20;99.90;;;;;;5093999;28;20464;-83
2022/05/29 02:14:42;;;;;;;0.40;0.30;;;11.20;99.90;;;;;;5093578;28;20957;-85
2022/05/29 02:17:15;;;;;;;0.40;0.40;;;11.10;99.90;;;;;;5093573;28;20464;-84
2022/05/29 02:19:46;;;;;;;0.43;0.43;;;11.10;99.90;;;;;;5094480;28;20894;-83
2022/05/29 02:22:18;;;;;;;0.50;0.50;;;11.10;99.90;;;;;;5098687;28;20472;-84
2022/05/29 02:24:49;;;;;;;0.40;0.40;;;11.20;99.90;;;;;;5099410;28;20436;-85
2022/05/29 02:27:22;;;;;;;0.50;0.50;;;11.20;99.90;;;;;;5098337;28;20500;-84
2022/05/29 02:29:50;;;;;;;0.40;0.33;;;11.20;99.90;;;;;;5094333;28;20438;-84
2022/05/29 02:32:26;;;;;;;0.50;0.37;;;11.20;99.90;;;;;;5093282;28;20472;-84
2022/05/29 02:35:03;;;;;;;0.40;0.40;;;11.20;99.90;;;;;;5094391;28;20776;-84
2022/05/29 02:37:37;;;;;;;2.00;0.50;;;11.20;99.90;;;;;;5093716;28;20431;-84
2022/05/29 02:40:16;;;;;;;0.50;0.50;;;11.20;99.90;;;;;;5093340;28;20459;-85
2022/05/29 02:42:50;;;;;;;0.43;0.40;;;11.20;99.90;;;;;;5093467;28;20900;-84
2022/05/29 02:45:24;;;;;;;0.40;0.40;;;11.10;99.90;;;;;;5093612;28;20486;-84
2022/05/29 02:47:58;;;;;;;0.70;0.70;;;11.10;99.90;;;;;;5093434;28;20428;-84
2022/05/29 02:50:35;;;;;;;0.40;0.40;;;11.00;99.90;;;;;;5093503;28;20428;-84
2022/05/29 02:53:07;;;;;;;0.43;0.43;;;11.10;99.90;;;;;;5093348;28;20537;-84
2022/05/29 02:55:34;;;;;;;0.77;0.50;;;11.00;99.90;;;;;;5093290;28;20464;-84
2022/05/29 02:58:06;;;;;;;0.53;0.53;;;11.10;99.90;;;;;;5093439;28;20439;-84
2022/05/29 03:00:54;;;;;;;0.40;0.30;;;11.10;99.90;;;;;;5093410;28;20424;-84
2022/05/29 03:03:29;;;;;;;1.00;0.60;;;11.10;99.90;;;;;;5093299;28;20474;-84
2022/05/29 03:06:06;;;;;;;0.30;0.30;;;11.00;99.90;;;;;;5093372;28;20447;-84
2022/05/29 03:08:44;;;;;;;0.60;0.60;;;11.00;99.90;;;;;;5093024;28;20426;-84
2022/05/29 03:11:13;;;;;;;0.30;0.30;;;11.00;99.90;;;;;;5094173;28;20432;-84
2022/05/29 03:13:50;;;;;;;0.30;0.30;;;10.90;99.90;;;;;;5093498;28;20467;-85
2022/05/29 03:16:30;;;;;;;0.43;0.43;;;10.90;99.90;;;;;;5093223;28;20459;-84
2022/05/29 03:19:04;;;;;;;0.50;0.50;;;10.80;99.90;;;;;;5093277;28;20440;-84
2022/05/29 03:21:39;;;;;;;0.43;0.40;;;10.80;99.90;;;;;;5093189;28;20539;-84
2022/05/29 03:24:16;;;;;;;0.40;0.30;;;10.80;99.90;;;;;;5093178;28;20428;-84
2022/05/29 03:26:49;;;;;;;0.97;0.70;;;10.80;99.90;;;;;;5093111;28;20427;-84
2022/05/29 03:29:20;;;;;;;0.30;0.30;;;10.80;99.90;;;;;;5093206;28;20428;-85
2022/05/29 03:31:50;;;;;;;0.40;0.40;;;10.90;99.90;;;;;;5092793;28;20539;-84
2022/05/29 03:34:17;;;;;;;0.40;0.30;;;10.80;99.90;;;;;;5092908;28;20413;-84
2022/05/29 03:36:47;;;;;;;0.40;0.40;;;10.80;99.90;;;;;;5093137;28;20479;-84
2022/05/29 03:39:14;;;;;;;0.40;0.33;;;10.70;99.90;;;;;;5096889;28;20451;-85
2022/05/29 03:41:46;;;;;;;0.70;0.67;;;10.70;99.90;;;;;;5096523;28;20482;-85
2022/05/29 03:44:14;;;;;;;0.43;0.43;;;10.70;99.90;;;;;;5096901;28;20443;-84
2022/05/29 03:46:42;;;;;;;0.83;0.83;;;10.60;99.90;;;;;;5096380;28;20949;-84
2022/05/29 03:49:11;;;;;;;0.70;0.50;;;10.60;99.90;;;;;;5096684;28;20874;-84
2022/05/29 03:51:39;;;;;;;0.73;0.50;;;10.60;99.90;;;;;;5096562;28;20455;-84
2022/05/29 03:54:06;;;;;;;0.50;0.50;;;10.60;99.90;;;;;;5096278;28;20454;-84
2022/05/29 03:56:33;;;;;;;0.50;0.40;;;10.60;99.90;;;;;;5096512;28;20491;-84
2022/05/29 03:59:00;;;;;;;0.40;0.30;;;10.60;99.90;;;;;;5096223;28;20443;-84
2022/05/29 04:01:27;;;;;;;0.40;0.33;;;10.60;99.90;;;;;;5096306;28;20474;-84
2022/05/29 04:03:54;;;;;;;0.53;0.50;;;10.60;99.90;;;;;;5096304;28;20444;-84
2022/05/29 04:06:22;;;;;;;0.67;0.50;;;10.60;99.90;;;;;;5096462;28;20444;-84
2022/05/29 04:14:18;;;;;;;0.50;0.50;;;10.60;99.90;;;;;;5096035;28;20396;-85
2022/05/29 04:16:45;;;;;;;0.40;0.40;;;10.60;99.90;;;;;;5095706;28;20850;-85
2022/05/29 04:19:12;;;;;;;0.47;0.47;;;10.60;99.90;;;;;;5096657;28;20432;-84
2022/05/29 04:21:40;;;;;;;0.50;0.43;;;10.60;99.90;;;;;;5096409;28;20936;-85
2022/05/29 04:24:08;;;;;;;0.73;0.60;;;10.60;99.90;;;;;;5095831;28;20450;-84
2022/05/29 04:26:36;;;;;;;0.43;0.43;;;10.70;99.90;;;;;;5096029;28;20819;-84
2022/05/29 04:29:04;;;;;;;0.40;0.40;;;10.70;99.90;;;;;;5095543;28;20935;-85
2022/05/29 04:31:30;;;;;;;0.33;0.30;;;10.80;99.90;;;;;;5095738;28;20444;-85
2022/05/29 04:33:56;;;;;;;0.30;0.30;;;10.80;99.90;;;;;;5095799;28;20447;-84
2022/05/29 04:36:24;;;;;;;0.40;0.40;;;10.80;99.90;;;;;;5095258;28;20475;-85
2022/05/29 04:38:52;;;;;;;0.30;0.30;;;10.80;99.90;;;;;;5095723;28;20602;-84
2022/05/29 04:41:25;;;;;;;0.50;0.40;;;10.80;99.90;;;;;;5095167;28;20486;-84
2022/05/29 04:43:52;;;;;;;0.30;0.30;;;10.80;99.90;;;;;;5095689;28;20436;-85
2022/05/29 04:46:18;;;;;;;0.40;0.40;;;10.80;99.90;;;;;;5095249;28;20449;-85
2022/05/29 04:48:45;;;;;;;0.40;0.30;;;10.90;99.90;;;;;;5094572;28;20468;-85
2022/05/29 04:51:12;;;;;;;0.83;0.50;;;10.90;99.90;;;;;;5095389;28;20444;-84
2022/05/29 04:53:39;;;;;;;0.40;0.30;;;11.00;99.90;;;;;;5095147;28;20459;-85
2022/05/29 04:56:07;;;;;;;0.93;0.50;;;11.10;99.90;;;;;;5099619;28;20484;-84
2022/05/29 04:58:34;;;;;;;0.60;0.60;;;11.10;99.90;;;;;;5101563;28;20455;-83
2022/05/29 05:01:03;;;;;;;0.40;0.40;;;11.00;99.90;;;;;;5100957;28;20812;-84
2022/05/29 05:03:31;;;;;;;0.57;0.57;;;11.10;99.90;;;;;;5097309;28;20475;-84
2022/05/29 05:05:58;;;;;;;0.40;0.40;;;11.10;99.90;;;;;;5094949;28;20455;-84
2022/05/29 05:08:24;;;;;;;0.43;0.40;;;11.20;99.90;;;;;;5095047;28;20448;-84
2022/05/29 05:10:51;;;;;;;0.40;0.40;;;11.20;99.90;;;;;;5094607;28;20435;-84
2022/05/29 05:13:19;;;;;;;1.40;0.60;;;11.20;99.90;;;;;;5094617;28;20993;-84
2022/05/29 05:15:46;;;;;;;0.50;0.40;;;11.30;99.90;;;;;;5094902;28;20470;-84
2022/05/29 05:18:13;;;;;;;0.40;0.40;;;11.40;99.90;;;;;;5094410;28;21033;-84
2022/05/29 05:20:40;;;;;;;0.40;0.30;;;11.50;99.90;;;;;;5094501;28;20444;-84
2022/05/29 05:23:08;;;;;;;0.40;0.40;;;11.50;99.90;;;;;;5094749;28;20467;-84
2022/05/29 05:25:36;;;;;;;0.33;0.33;;;11.50;99.90;;;;;;5094612;28;20448;-84
2022/05/29 05:28:03;;;;;;;0.40;0.40;;;11.50;99.90;;;;;;5095109;28;20779;-84
2022/05/29 05:30:32;;;;;;;0.40;0.30;;;11.50;99.90;;;;;;5094611;28;20872;-84
2022/05/29 05:32:59;;;;;;;1.60;0.43;;;11.50;99.90;;;;;;5094499;28;20498;-84
2022/05/29 05:35:25;;;;;;;0.40;0.30;;;11.50;99.90;;;;;;5094227;28;20448;-84
2022/05/29 05:37:52;;;;;;;2.13;0.60;;;11.50;99.90;;;;;;5094352;28;20479;-85
2022/05/29 05:40:19;;;;;;;1.10;0.60;;;11.60;99.90;;;;;;5094274;28;20448;-85
2022/05/29 05:42:46;;;;;;;0.60;0.60;;;11.60;99.90;;;;;;5094411;28;20491;-84
2022/05/29 05:45:13;;;;;;;0.40;0.40;;;11.70;99.90;;;;;;5094022;28;20989;-84
2022/05/29 05:47:42;;;;;;;0.40;0.40;;;11.80;99.90;;;;;;5094178;28;20444;-84
2022/05/29 05:50:11;;;;;;;0.40;0.30;;;11.80;99.90;;;;;;5094361;28;20460;-84
2022/05/29 05:52:38;;;;;;;0.60;0.50;;;12.00;99.90;;;;;;5094229;28;20841;-84
2022/05/29 05:55:07;;;;;;;0.50;0.50;;;12.10;99.90;;;;;;5094356;28;20485;-84
2022/05/29 05:57:34;;;;;;;0.60;0.50;;;12.20;99.90;;;;;;5094214;28;20475;-85
2022/05/29 06:00:01;;;;;;;0.50;0.50;;;12.30;99.90;;;;;;5093652;28;20443;-84
2022/05/29 06:02:28;;;;;;;0.50;0.50;;;12.40;99.90;;;;;;5093203;28;20982;-84
2022/05/29 06:04:56;;;;;;;0.93;0.50;;;12.60;99.90;;;;;;5094091;28;20444;-85
2022/05/29 06:07:22;;;;;;;0.30;0.30;;;12.70;99.90;;;;;;5094127;28;20455;-85
2022/05/29 06:09:49;;;;;;;0.40;0.40;;;12.70;99.90;;;;;;5094026;28;20458;-85
2022/05/29 06:12:19;;;;;;;0.60;0.40;;;12.70;99.90;;;;;;5093948;28;20471;-85
2022/05/29 06:14:46;;;;;;;0.30;0.30;;;12.70;99.90;;;;;;5094004;28;20435;-85
2022/05/29 06:17:13;;;;;;;0.40;0.40;;;12.60;99.90;;;;;;5093472;28;20522;-85
2022/05/29 06:19:40;;;;;;;0.40;0.30;;;12.70;99.90;;;;;;5093352;28;20448;-84
2022/05/29 06:22:08;;;;;;;0.50;0.50;;;12.80;99.90;;;;;;5093900;28;20836;-85
2022/05/29 06:24:35;;;;;;;0.40;0.33;;;12.90;99.90;;;;;;5093452;28;20435;-85
2022/05/29 06:27:02;;;;;;;0.50;0.50;;;12.80;99.90;;;;;;5093368;28;20436;-85
2022/05/29 06:29:29;;;;;;;0.50;0.50;;;12.80;99.90;;;;;;5093577;28;20455;-85
2022/05/29 06:32:00;;;;;;;0.60;0.40;;;12.70;99.90;;;;;;5093457;28;20833;-85
2022/05/29 06:34:26;;;;;;;0.73;0.60;;;12.60;99.90;;;;;;5093401;28;20503;-84
2022/05/29 06:36:53;;;;;;;0.30;0.30;;;12.60;99.90;;;;;;5093404;28;20471;-84
2022/05/29 06:39:22;;;;;;;0.37;0.30;;;12.60;99.90;;;;;;5093416;28;20447;-85
2022/05/29 06:41:49;;;;;;;0.50;0.47;;;12.60;99.90;;;;;;5092864;28;21077;-85
2022/05/29 06:44:15;;;;;;;0.40;0.37;;;12.70;99.90;;;;;;5093643;28;20527;-85
2022/05/29 06:46:42;;;;;;;0.57;0.57;;;12.60;99.90;;;;;;5093079;28;20932;-85
2022/05/29 06:49:10;;;;;;;0.30;0.30;;;12.70;99.90;;;;;;5093528;28;20527;-85
2022/05/29 06:51:36;;;;;;;0.50;0.47;;;12.80;99.90;;;;;;5093416;28;20505;-85
2022/05/29 06:54:04;;;;;;;0.43;0.43;;;12.90;99.90;;;;;;5093247;28;20444;-85
2022/05/29 06:56:33;;;;;;;0.60;0.50;;;13.10;99.90;;;;;;5093525;28;20440;-85
2022/05/29 06:59:01;;;;;;;0.60;0.60;;;13.30;99.90;;;;;;5093302;28;20440;-84
2022/05/29 07:07:01;;;;;;;0.40;0.40;;;13.50;99.90;;;;;;5093179;28;20643;-84
2022/05/29 07:09:30;;;;;;;0.40;0.40;;;13.50;99.90;;;;;;5093074;28;20460;-85
2022/05/29 07:12:06;;;;;;;0.40;0.40;;;13.60;99.90;;;;;;5093974;28;20971;-85
2022/05/29 07:14:33;;;;;;;0.47;0.47;;;13.60;99.90;;;;;;5098115;28;20444;-85
2022/05/29 07:17:00;;;;;;;0.40;0.40;;;13.70;99.90;;;;;;5096999;28;20479;-85
2022/05/29 07:19:28;;;;;;;0.40;0.30;;;13.80;99.90;;;;;;5097370;28;20444;-84
2022/05/29 07:21:58;;;;;;;0.40;0.40;;;14.00;99.90;;;;;;5097254;28;20468;-83
2022/05/29 07:24:26;;;;;;;0.40;0.40;;;14.40;99.90;;;;;;5097193;28;20497;-84
2022/05/29 07:26:54;;;;;;;2.40;0.53;;;14.90;99.90;;;;;;5097190;28;20448;-84
2022/05/29 07:29:22;;;;;;;0.50;0.43;;;15.30;99.90;;;;;;5097481;28;20443;-84
2022/05/29 07:31:49;;;;;;;0.63;0.40;;;15.40;99.90;;;;;;5101787;28;20467;-84
2022/05/29 07:34:16;;;;;;;1.20;0.70;;;15.70;99.90;;;;;;5111083;28;20451;-83
2022/05/29 07:36:42;;;;;;;0.40;0.37;;;15.80;99.90;;;;;;5109552;28;20455;-84
2022/05/29 07:39:10;;;;;;;0.50;0.43;;;15.70;99.90;;;;;;5104460;28;20435;-84
2022/05/29 07:44:23;;;;;;;0.70;0.50;;;15.20;99.90;;;;;;5096990;28;20400;-85
2022/05/29 07:46:50;;;;;;;0.40;0.40;;;14.80;99.90;;;;;;5099839;28;20515;-85
2022/05/29 07:49:17;;;;;;;0.30;0.30;;;14.50;99.90;;;;;;5096726;28;20451;-85
2022/05/29 07:51:43;;;;;;;0.40;0.40;;;14.30;99.90;;;;;;5096454;28;20444;-84
2022/05/29 07:54:10;;;;;;;0.50;0.40;;;14.10;99.90;;;;;;5096565;28;20490;-84
2022/05/29 07:56:37;;;;;;;0.40;0.37;;;13.90;99.90;;;;;;5096556;28;20443;-85
2022/05/29 07:59:04;;;;;;;0.40;0.30;;;13.80;99.90;;;;;;5096599;28;20440;-85
2022/05/29 08:01:32;;;;;;;0.47;0.47;;;13.70;99.90;;;;;;5096100;28;20805;-84
2022/05/29 08:03:59;;;;;;;0.30;0.30;;;13.60;99.90;;;;;;5096026;28;20967;-84
2022/05/29 08:06:27;;;;;;;0.37;0.30;;;13.50;99.90;;;;;;5096073;28;20950;-85
2022/05/29 08:08:54;;;;;;;0.60;0.60;;;13.40;99.90;;;;;;5096337;28;20800;-85
2022/05/29 08:11:20;;;;;;;0.30;0.30;;;13.30;99.90;;;;;;5096036;28;20980;-85
2022/05/29 08:13:48;;;;;;;0.30;0.30;;;13.20;99.90;;;;;;5095779;28;21001;-84
2022/05/29 08:16:17;;;;;;;0.40;0.40;;;13.10;99.90;;;;;;5095967;28;20927;-84
2022/05/29 08:18:47;;;;;;;0.77;0.50;;;13.10;99.90;;;;;;5096060;28;20850;-83
2022/05/29 08:21:15;;;;;;;0.40;0.40;;;12.90;99.90;;;;;;5096405;28;20443;-84
2022/05/29 08:30:37;;;;;;;0.40;0.40;;;12.90;99.90;;;;;;5094952;28;20472;-84
2022/05/29 08:31:57;;;;;;;1.83;1.73;;;12.90;99.90;;;;;;5095670;28;20958;-83
2022/05/29 08:34:25;;;;;;;0.50;0.40;;;12.80;99.90;;;;;;5095798;28;20443;-84
2022/05/29 08:36:52;;;;;;;0.40;0.30;;;12.80;99.90;;;;;;5095777;28;20444;-83
2022/05/29 08:39:19;;;;;;;0.53;0.33;;;12.80;99.90;;;;;;5095422;28;20830;-84
2022/05/29 08:41:50;;;;;;;0.37;0.37;;;12.70;99.90;;;;;;5095265;28;20483;-83
2022/05/29 08:44:19;;;;;;;0.97;0.97;;;12.60;99.90;;;;;;5095757;28;20806;-84
2022/05/29 08:46:49;;;;;;;0.40;0.30;;;12.50;99.90;;;;;;5095297;28;20448;-84
2022/05/29 08:49:17;;;;;;;0.30;0.30;;;12.50;99.90;;;;;;5095493;28;20798;-84
2022/05/29 08:52:14;;;;;;;0.30;0.30;;;12.50;99.90;;;;;;5095411;28;20460;-83
2022/05/29 08:54:48;;;;;;;0.30;0.30;;;12.50;99.90;;;;;;5095539;28;20435;-85
2022/05/29 08:57:27;;;;;;;0.50;0.50;;;12.60;99.90;;;;;;5095222;28;20431;-85
2022/05/29 08:59:58;;;;;;;0.40;0.40;;;12.70;99.90;;;;;;5095447;28;20439;-85
2022/05/29 09:02:47;;;;;;;0.30;0.30;;;12.70;99.90;;;;;;5095414;28;20467;-85
2022/05/29 09:05:20;;;;;;;0.40;0.40;;;12.80;99.90;;;;;;5095325;28;20442;-85
2022/05/29 09:07:50;;;;;;;0.47;0.40;;;12.80;99.90;;;;;;5095210;28;20428;-85
2022/05/29 09:10:21;;;;;;;0.80;0.60;;;12.80;99.90;;;;;;5095283;28;20927;-85
2022/05/29 09:12:51;;;;;;;0.40;0.40;;;12.90;99.90;;;;;;5094859;28;20994;-84
2022/05/29 09:15:28;;;;;;;0.40;0.30;;;13.00;99.90;;;;;;5095122;28;20821;-85
2022/05/29 09:17:59;;;;;;;0.30;0.30;;;13.10;99.90;;;;;;5095000;28;20837;-84
2022/05/29 09:20:32;;;;;;;0.40;0.37;;;13.10;99.90;;;;;;5095051;28;20474;-84
2022/05/29 09:23:02;;;;;;;0.50;0.50;;;13.20;99.90;;;;;;5094878;28;20492;-85
2022/05/29 09:25:31;;;;;;;0.30;0.30;;;13.30;99.90;;;;;;5095001;28;20498;-84
2022/05/29 09:28:02;;;;;;;0.40;0.30;;;13.40;99.90;;;;;;5094809;28;20444;-84
2022/05/29 09:30:29;;;;;;;0.40;0.40;;;13.40;99.90;;;;;;5094508;28;20443;-84
2022/05/29 09:32:59;;;;;;;0.40;0.30;;;13.50;99.90;;;;;;5094649;28;20470;-84
2022/05/29 09:35:33;;;;;;;0.47;0.47;;;13.80;99.90;;;;;;5094664;28;20441;-83
2022/05/29 09:38:07;;;;;;;0.40;0.30;;;14.30;99.90;;;;;;5094543;28;20460;-85
2022/05/29 09:40:39;;;;;;;0.40;0.33;;;14.60;99.90;;;;;;5094624;28;20480;-84
2022/05/29 09:43:17;;;;;;;0.40;0.30;;;14.80;99.90;;;;;;5094558;28;20828;-84
2022/05/29 09:45:44;;;;;;;0.40;0.30;;;14.90;99.90;;;;;;5094572;28;20435;-84
2022/05/29 09:51:21;;;;;;;0.40;0.30;;;14.60;99.90;;;;;;5094723;28;20399;-85
2022/05/29 09:53:53;;;;;;;0.37;0.30;;;14.30;99.90;;;;;;5094429;28;20474;-85
2022/05/29 09:56:29;;;;;;;0.50;0.40;;;14.10;99.90;;;;;;5094497;28;20428;-85
2022/05/29 09:58:59;;;;;;;0.40;0.40;;;13.90;99.90;;;;;;5094475;28;20460;-85
2022/05/29 10:01:30;;;;;;;0.40;0.37;;;13.60;99.90;;;;;;5095863;28;20432;-85
2022/05/29 10:03:59;;;;;;;0.33;0.30;;;13.40;99.90;;;;;;5097071;28;20432;-85
2022/05/29 10:06:32;;;;;;;0.40;0.40;;;13.30;99.90;;;;;;5101357;28;20433;-85
2022/05/29 10:09:17;;;;;;;0.40;0.30;;;13.30;99.90;;;;;;5114283;28;20424;-84
2022/05/29 10:11:46;;;;;;;0.37;0.30;;;13.30;99.90;;;;;;5112493;28;20436;-84
2022/05/29 10:14:36;;;;;;;0.60;0.40;;;13.30;99.90;;;;;;5099327;28;20439;-85
2022/05/29 10:17:12;;;;;;;2.00;0.50;;;13.40;99.90;;;;;;5094433;28;20421;-85
2022/05/29 10:19:42;;;;;;;0.40;0.30;;;13.30;99.90;;;;;;5094173;28;20463;-85
2022/05/29 10:22:14;;;;;;;0.80;0.30;;;13.30;99.90;;;;;;5094577;28;20464;-87
2022/05/29 10:24:43;;;;;;;0.40;0.30;;;13.40;99.90;;;;;;5093924;28;20450;-83
2022/05/29 10:27:22;;;;;;;0.40;0.30;;;13.60;99.90;;;;;;5093546;28;20451;-82
2022/05/29 10:29:53;;;;;;;0.40;0.40;;;13.80;99.90;;;;;;5094226;28;20435;-86
2022/05/29 10:32:25;;;;;;;0.50;0.50;;;14.10;99.90;;;;;;5094553;28;20479;-84
2022/05/29 10:35:01;;;;;;;0.50;0.40;;;14.20;99.90;;;;;;5093847;28;20794;-84
2022/05/29 10:37:36;;;;;;;0.40;0.40;;;14.30;99.90;;;;;;5093796;28;20794;-82
2022/05/29 10:40:18;;;;;;;0.50;0.40;;;14.50;99.90;;;;;;5093479;28;20431;-81
2022/05/29 10:42:47;;;;;;;1.13;0.30;;;14.80;99.90;;;;;;5093591;28;20490;-81
2022/05/29 10:45:23;;;;;;;0.40;0.40;;;14.90;99.90;;;;;;5093255;28;20939;-83
2022/05/29 10:48:17;;;;;;;0.60;0.60;;;15.10;99.90;;;;;;5093142;28;20443;-86
2022/05/29 10:51:04;;;;;;;0.47;0.30;;;15.60;99.90;;;;;;5093462;28;20523;-80
2022/05/29 10:53:47;;;;;;;0.40;0.40;;;15.80;99.90;;;;;;5093331;28;20468;-80
2022/05/29 10:56:29;;;;;;;0.90;0.37;;;15.90;99.90;;;;;;5093481;28;20860;-84
2022/05/29 10:59:14;;;;;;;0.40;0.40;;;16.00;99.90;;;;;;5093709;28;20476;-81
2022/05/29 11:05:08;;;;;;;0.80;0.40;;;16.50;99.90;;;;;;5093655;28;20419;-83
2022/05/29 11:07:56;;;;;;;0.40;0.30;;;16.50;99.90;;;;;;5093216;28;20949;-85
2022/05/29 11:10:49;;;;;;;0.40;0.30;;;16.20;99.90;;;;;;5093580;28;20843;-85
2022/05/29 11:13:33;;;;;;;0.40;0.30;;;15.80;99.90;;;;;;5092605;28;20472;-83
2022/05/29 11:16:12;;;;;;;0.40;0.40;;;15.50;99.90;;;;;;5093439;28;20432;-83
2022/05/29 11:19:20;;;;;;;0.73;0.30;;;15.30;99.90;;;;;;5093172;28;20459;-83
2022/05/29 11:22:05;;;;;;;0.30;0.20;;;15.10;99.90;;;;;;5093196;28;20470;-83
2022/05/29 11:24:46;;;;;;;0.30;0.30;;;15.10;99.90;;;;;;5093215;28;20965;-83
2022/05/29 11:27:26;;;;;;;0.37;0.30;;;15.00;99.90;;;;;;5093210;28;20425;-83
2022/05/29 11:30:06;;;;;;;0.40;0.30;;;14.90;99.90;;;;;;5093157;28;20423;-82
2022/05/29 11:32:54;;;;;;;0.30;0.30;;;14.90;99.90;;;;;;5092752;28;20499;-83
2022/05/29 11:35:35;;;;;;;0.33;0.30;;;15.10;99.90;;;;;;5093204;28;20432;-84
2022/05/29 11:38:22;;;;;;;0.30;0.30;;;15.30;99.30;;;;;;5093574;28;20448;-84
2022/05/29 11:40:55;;;;;;;0.40;0.30;;;15.40;99.20;;;;;;5092744;28;20848;-84
2022/05/29 11:43:27;;;;;;;0.30;0.30;;;15.50;98.40;;;;;;5093177;28;20467;-83
2022/05/29 11:51:41;;;;;;;0.77;0.30;;;16.10;96.20;;;;;;5092693;28;20422;-82
2022/05/29 11:54:11;;;;;;;0.40;0.40;;;16.20;96.50;;;;;;5092933;28;20508;-82
2022/05/29 11:56:42;;;;;;;1.07;0.40;;;16.10;96.10;;;;;;5092529;28;20822;-83
2022/05/29 11:59:19;;;;;;;0.60;0.30;;;16.00;95.90;;;;;;5093132;28;20468;-82
2022/05/29 12:01:54;;;;;;;0.30;0.30;;;15.90;95.10;;;;;;5096441;28;20467;-83
2022/05/29 12:04:30;;;;;;;0.30;0.30;;;15.70;94.90;;;;;;5096548;28;20435;-84
2022/05/29 12:07:05;;;;;;;1.23;0.40;;;15.70;95.20;;;;;;5096441;28;20442;-83
2022/05/29 12:09:36;;;;;;;0.30;0.30;;;15.60;96.10;;;;;;5096330;28;20435;-83
2022/05/29 12:12:08;;;;;;;0.30;0.30;;;15.60;94.70;;;;;;5096281;28;20566;-83
2022/05/29 12:14:39;;;;;;;0.30;0.30;;;15.50;95.60;;;;;;5096080;28;20926;-83
2022/05/29 12:17:13;;;;;;;0.30;0.30;;;15.40;94.50;;;;;;5096347;28;20440;-83
2022/05/29 12:19:44;;;;;;;0.30;0.30;;;15.30;95.20;;;;;;5096224;28;20474;-83
2022/05/29 12:22:12;;;;;;;0.30;0.30;;;15.20;94.80;;;;;;5096169;28;20467;-82
2022/05/29 12:24:42;;;;;;;0.30;0.30;;;15.10;94.30;;;;;;5096103;28;20474;-83
2022/05/29 12:27:14;;;;;;;0.40;0.30;;;14.90;95.20;;;;;;5095927;28;20479;-82
2022/05/29 12:29:45;;;;;;;0.30;0.30;;;14.80;95.50;;;;;;5096131;28;20428;-83
2022/05/29 12:32:19;;;;;;;0.70;0.30;;;14.60;96.40;;;;;;5096888;28;20496;-83
2022/05/29 12:34:51;;;;;;;0.30;0.30;;;14.50;97.50;;;;;;5096054;28;20432;-82
2022/05/29 12:37:56;;;;;;;0.40;0.30;;;14.60;98.30;;;;;;5096121;28;20436;-82
2022/05/29 12:40:49;;;;;;;0.30;0.30;;;14.70;98.20;;;;;;5081597;28;20499;-83
2022/05/29 12:43:39;;;;;;;0.63;0.30;;;14.80;98.80;;;;;;5104870;28;20472;-82
2022/05/29 12:46:18;;;;;;;0.40;0.30;;;14.90;98.30;;;;;;5103999;28;20908;-82
2022/05/29 12:49:21;;;;;;;0.30;0.30;;;14.80;98.20;;;;;;5100623;28;20911;-82
2022/05/29 12:52:00;;;;;;;0.40;0.30;;;14.90;98.40;;;;;;5081426;28;20495;-83
2022/05/29 12:54:48;;;;;;;0.30;0.30;;;14.90;98.20;;;;;;5095631;28;20431;-83
2022/05/29 12:57:49;;;;;;;0.80;0.60;;;14.90;97.10;;;;;;5095491;28;20440;-82
2022/05/29 13:00:30;;;;;;;0.30;0.30;;;14.80;96.40;;;;;;5095135;28;20466;-82
2022/05/29 13:03:39;;;;;;;0.30;0.30;;;14.60;97.20;;;;;;5095337;28;20475;-83
2022/05/29 13:06:48;;;;;;;0.40;0.30;;;14.40;96.70;;;;;;5020129;28;20436;-83
2022/05/29 13:09:31;;;;;;;0.40;0.40;;;14.10;96.60;;;;;;5094925;28;20435;-83
2022/05/29 13:12:03;;;;;;;0.40;0.30;;;13.80;97.50;;;;;;5094975;28;20478;-83
2022/05/29 13:14:31;;;;;;;0.40;0.30;;;13.70;97.80;;;;;;5095176;28;20428;-83
2022/05/29 13:17:05;;;;;;;0.40;0.30;;;13.70;97.20;;;;;;5095097;28;20431;-83
2022/05/29 13:20:06;;;;;;;0.40;0.33;;;13.70;95.60;;;;;;5095531;28;20466;-83
2022/05/29 13:22:55;;;;;;;0.40;0.30;;;13.90;94.40;;;;;;5012760;28;20456;-83
2022/05/29 13:25:24;;;;;;;0.40;0.30;;;14.00;94.50;;;;;;5089893;28;20451;-82
2022/05/29 13:27:52;;;;;;;0.80;0.40;;;14.00;95.30;;;;;;5094895;28;20463;-83
2022/05/29 13:31:00;;;;;;;0.67;0.30;;;14.20;95.40;;;;;;5094850;28;20497;-83
2022/05/29 13:33:57;;;;;;;0.50;0.30;;;14.30;95.10;;;;;;5094685;28;20463;-83
2022/05/29 13:37:07;;;;;;;0.70;0.40;;;14.40;94.30;;;;;;5048643;28;20467;-83
2022/05/29 13:39:58;;;;;;;0.40;0.40;;;14.40;94.30;;;;;;5094575;28;20460;-83
2022/05/29 13:42:35;;;;;;;1.90;0.40;;;14.50;94.20;;;;;;5084355;28;20502;-82
2022/05/29 13:45:43;;;;;;;0.40;0.37;;;14.60;93.00;;;;;;5094693;28;20401;-81
2022/05/29 13:48:18;;;;;;;0.50;0.50;;;14.70;92.20;;;;;;5095032;28;20497;-81
2022/05/29 13:50:51;;;;;;;0.30;0.30;;;14.60;92.70;;;;;;5094456;28;20435;-82